Time;durP1;ratioP1;P1;durP2;ratioP2;P2;SDS_P1;SDS_P2;PMS_P1;PMS_P2;Temp;Humidity;BMP_temperature;BMP_pressure;BME280_temperature;BME280_humidity;BME280_pressure;Samples;Min_cycle;Max_cycle;Signal;HPM_P1;HPM_P2
2022/04/27 00:00:34;;;;;;;9.48;4.30;;;7.10;99.90;;;;;;5068910;28;20033;-66
2022/04/27 00:03:01;;;;;;;7.15;4.45;;;7.10;99.90;;;;;;5068513;28;20024;-66
2022/04/27 00:05:28;;;;;;;6.82;4.47;;;7.10;99.90;;;;;;5069109;28;20111;-65
2022/04/27 00:07:54;;;;;;;9.60;4.90;;;7.00;99.90;;;;;;5071862;28;20028;-66
2022/04/27 00:10:19;;;;;;;8.93;4.68;;;7.00;99.90;;;;;;5071856;28;20032;-66
2022/04/27 00:12:46;;;;;;;8.25;4.30;;;7.00;99.90;;;;;;5071509;28;20086;-66
2022/04/27 00:15:12;;;;;;;8.43;4.43;;;7.00;99.90;;;;;;5071804;28;20040;-66
2022/04/27 00:17:38;;;;;;;7.88;4.93;;;7.00;99.90;;;;;;5071484;28;20103;-66
2022/04/27 00:20:06;;;;;;;7.63;4.60;;;7.00;99.90;;;;;;5068872;28;20147;-66
2022/04/27 00:22:31;;;;;;;6.65;4.32;;;7.00;99.90;;;;;;5067110;28;20035;-66
2022/04/27 00:25:01;;;;;;;10.18;4.97;;;7.00;99.90;;;;;;5068299;28;20025;-66
2022/04/27 00:27:28;;;;;;;9.75;4.63;;;7.00;99.90;;;;;;5068338;28;20036;-66
2022/04/27 00:29:54;;;;;;;9.63;4.80;;;7.00;99.90;;;;;;5070890;28;20032;-66
2022/04/27 00:32:20;;;;;;;6.88;5.00;;;7.00;99.90;;;;;;5069358;28;20032;-66
2022/04/27 00:34:45;;;;;;;6.93;4.07;;;7.00;99.90;;;;;;5067906;28;20029;-66
2022/04/27 00:37:11;;;;;;;7.47;3.92;;;7.00;99.90;;;;;;5067966;28;20136;-66
2022/04/27 00:39:36;;;;;;;7.18;3.75;;;7.00;99.90;;;;;;5068019;28;20024;-66
2022/04/27 00:42:23;;;;;;;4.43;3.30;;;7.10;99.90;;;;;;5069320;28;20052;-66
2022/04/27 00:44:49;;;;;;;4.60;3.35;;;7.10;99.90;;;;;;5070085;28;20244;-66
2022/04/27 00:47:16;;;;;;;5.18;2.88;;;7.00;99.90;;;;;;5067747;28;20529;-66
2022/04/27 00:49:52;;;;;;;4.82;2.75;;;6.90;99.90;;;;;;5067616;28;20029;-65
2022/04/27 00:52:19;;;;;;;3.75;2.60;;;6.80;99.90;;;;;;5071126;28;20032;-66
2022/04/27 00:54:48;;;;;;;7.60;3.47;;;6.80;99.90;;;;;;5070635;28;20020;-66
2022/04/27 00:57:14;;;;;;;3.42;2.40;;;6.70;99.90;;;;;;5070843;28;20020;-65
2022/04/27 00:59:40;;;;;;;3.90;2.38;;;6.70;99.90;;;;;;5070957;28;20027;-66
2022/04/27 01:02:06;;;;;;;3.00;2.30;;;6.70;99.90;;;;;;5069185;28;20493;-66
2022/04/27 01:04:36;;;;;;;3.72;2.53;;;6.70;99.90;;;;;;5067670;28;20035;-66
2022/04/27 01:07:03;;;;;;;4.63;2.45;;;6.60;99.90;;;;;;5068218;28;20031;-65
2022/04/27 01:09:30;;;;;;;3.85;2.30;;;6.60;99.90;;;;;;5070457;28;20047;-65
2022/04/27 01:11:57;;;;;;;5.28;2.40;;;6.60;99.90;;;;;;5070233;28;20657;-66
2022/04/27 01:14:23;;;;;;;3.75;2.22;;;6.60;99.90;;;;;;5070379;28;20033;-64
2022/04/27 01:16:53;;;;;;;2.33;1.95;;;6.60;99.90;;;;;;5070405;28;20036;-65
2022/04/27 01:19:22;;;;;;;3.53;2.20;;;6.50;99.90;;;;;;5070466;28;20465;-65
2022/04/27 01:21:48;;;;;;;5.88;2.80;;;6.40;99.90;;;;;;5070365;28;20451;-66
2022/04/27 01:24:19;;;;;;;4.10;2.05;;;6.30;99.90;;;;;;5070377;28;20028;-66
2022/04/27 01:26:46;;;;;;;;;;;6.40;99.90;;;;;;5070764;28;20050;-66
2022/04/27 01:29:14;;;;;;;5.30;2.05;;;6.40;99.90;;;;;;5070009;28;20292;-65
2022/04/27 01:31:40;;;;;;;2.75;2.15;;;6.50;99.90;;;;;;5070248;28;20024;-66
2022/04/27 01:34:06;;;;;;;4.55;2.65;;;6.70;99.90;;;;;;5069919;28;20081;-66
2022/04/27 01:36:31;;;;;;;5.00;2.17;;;6.80;99.90;;;;;;5070130;28;20102;-66
2022/04/27 01:38:57;;;;;;;6.07;2.90;;;6.90;99.90;;;;;;5069697;28;20035;-67
2022/04/27 01:41:23;;;;;;;3.15;2.47;;;7.10;99.90;;;;;;5062239;28;20028;-66
2022/04/27 01:43:48;;;;;;;4.70;2.67;;;7.10;99.90;;;;;;5050448;28;20021;-66
2022/04/27 01:46:14;;;;;;;6.70;3.10;;;7.20;99.90;;;;;;5056908;28;20431;-66
2022/04/27 01:48:40;;;;;;;3.65;1.90;;;7.30;99.90;;;;;;5065648;28;20056;-66
2022/04/27 01:51:05;;;;;;;4.93;2.70;;;7.40;99.90;;;;;;5047404;28;20378;-66
2022/04/27 01:56:15;;;;;;;3.95;2.20;;;7.50;99.90;;;;;;5061512;28;20067;-66
2022/04/27 01:58:41;;;;;;;7.03;2.60;;;7.70;99.90;;;;;;5067129;28;20033;-66
2022/04/27 02:01:11;;;;;;;3.60;2.40;;;7.70;99.90;;;;;;5066832;28;20457;-67
2022/04/27 02:03:36;;;;;;;5.57;2.30;;;7.70;99.90;;;;;;5066854;28;20032;-66
2022/04/27 02:06:02;;;;;;;4.10;2.38;;;7.70;99.90;;;;;;5069890;28;20259;-66
2022/04/27 02:08:28;;;;;;;4.00;2.08;;;7.70;99.90;;;;;;5069904;28;20091;-66
2022/04/27 02:10:54;;;;;;;3.03;2.15;;;7.60;99.90;;;;;;5069436;28;20393;-65
2022/04/27 02:13:20;;;;;;;5.43;2.75;;;7.60;99.90;;;;;;5069700;28;20103;-65
2022/04/27 02:15:45;;;;;;;3.70;2.47;;;7.50;99.90;;;;;;5069639;28;20105;-65
2022/04/27 02:18:11;;;;;;;2.78;1.80;;;7.50;99.90;;;;;;5069516;28;20052;-65
2022/04/27 02:20:37;;;;;;;3.97;2.78;;;7.30;99.90;;;;;;5069644;28;20071;-64
2022/04/27 02:23:03;;;;;;;4.05;2.33;;;7.20;99.90;;;;;;5069768;28;20025;-64
2022/04/27 02:25:29;;;;;;;4.75;3.00;;;7.00;99.90;;;;;;5069621;28;20035;-65
2022/04/27 02:27:55;;;;;;;6.15;2.80;;;6.80;99.90;;;;;;5069325;28;20039;-65
2022/04/27 02:30:21;;;;;;;4.63;2.58;;;6.70;99.90;;;;;;5069459;28;20477;-66
2022/04/27 02:32:47;;;;;;;4.43;2.40;;;6.60;99.90;;;;;;5069555;28;20035;-66
2022/04/27 02:35:14;;;;;;;4.30;2.28;;;6.50;99.90;;;;;;5069656;28;20218;-65
2022/04/27 02:37:39;;;;;;;6.72;3.00;;;6.40;99.90;;;;;;5069368;28;20370;-65
2022/04/27 02:40:08;;;;;;;6.13;2.03;;;6.40;99.90;;;;;;5069347;28;20028;-66
2022/04/27 02:42:33;;;;;;;5.75;2.60;;;6.40;99.90;;;;;;5069138;28;20085;-65
2022/04/27 02:44:59;;;;;;;7.97;3.25;;;6.50;99.90;;;;;;5070853;28;20021;-65
2022/04/27 02:47:25;;;;;;;3.63;2.10;;;6.60;99.90;;;;;;5073428;28;20397;-66
2022/04/27 02:52:35;;;;;;;4.13;3.03;;;6.80;99.90;;;;;;5073328;28;20094;-65
2022/04/27 02:55:01;;;;;;;6.03;2.80;;;6.90;99.90;;;;;;5073061;28;20040;-65
2022/04/27 02:57:26;;;;;;;5.30;2.80;;;7.00;99.90;;;;;;5072330;28;20492;-65
2022/04/27 02:59:52;;;;;;;6.28;2.72;;;7.00;99.90;;;;;;5069675;28;20028;-65
2022/04/27 03:02:18;;;;;;;7.07;3.42;;;7.00;99.90;;;;;;5070004;28;20027;-66
2022/04/27 03:04:44;;;;;;;6.28;2.83;;;7.00;99.90;;;;;;5069849;28;20055;-66
2022/04/27 03:07:09;;;;;;;7.90;3.22;;;7.00;99.90;;;;;;5070258;28;20385;-66
2022/04/27 03:09:35;;;;;;;5.38;2.60;;;6.90;99.90;;;;;;5072739;28;20861;-64
2022/04/27 03:12:01;;;;;;;6.05;2.45;;;6.90;99.90;;;;;;5072493;28;20025;-65
2022/04/27 03:14:28;;;;;;;3.53;2.63;;;7.00;99.90;;;;;;5072983;28;20031;-67
2022/04/27 03:16:54;;;;;;;6.25;3.28;;;7.10;99.90;;;;;;5072551;28;20480;-64
2022/04/27 03:19:21;;;;;;;5.10;2.38;;;7.20;99.90;;;;;;5072673;28;20099;-66
2022/04/27 03:21:46;;;;;;;3.72;2.47;;;7.20;99.90;;;;;;5072574;28;20574;-65
2022/04/27 03:24:12;;;;;;;3.33;2.35;;;7.20;99.90;;;;;;5072545;28;20064;-65
2022/04/27 03:26:38;;;;;;;5.25;2.63;;;7.20;99.90;;;;;;5072338;28;20114;-66
2022/04/27 03:29:04;;;;;;;7.60;2.78;;;7.30;99.90;;;;;;5072552;28;20063;-64
2022/04/27 03:31:30;;;;;;;6.70;3.10;;;7.30;99.90;;;;;;5072417;28;20047;-64
2022/04/27 03:33:56;;;;;;;4.97;2.33;;;7.30;99.90;;;;;;5072159;28;20033;-64
2022/04/27 03:36:22;;;;;;;4.05;2.83;;;7.30;99.90;;;;;;5072321;28;20189;-64
2022/04/27 03:38:50;;;;;;;3.05;2.30;;;7.30;99.90;;;;;;5070796;28;20105;-65
2022/04/27 03:41:22;;;;;;;5.38;2.85;;;7.40;99.90;;;;;;5072063;28;20082;-67
2022/04/27 03:43:49;;;;;;;6.53;2.97;;;7.40;99.90;;;;;;5072255;28;20024;-65
2022/04/27 03:46:15;;;;;;;6.18;2.88;;;7.40;99.90;;;;;;5072243;28;20055;-65
2022/04/27 03:48:41;;;;;;;5.78;3.20;;;7.50;99.90;;;;;;5071964;28;20072;-65
2022/04/27 03:51:07;;;;;;;5.55;2.63;;;7.50;99.90;;;;;;5072212;28;20036;-65
2022/04/27 03:53:33;;;;;;;4.88;2.75;;;7.60;99.90;;;;;;5072070;28;20480;-64
2022/04/27 03:55:59;;;;;;;4.70;2.85;;;7.60;99.90;;;;;;5072126;28;20027;-65
2022/04/27 03:58:24;;;;;;;5.15;3.10;;;7.60;99.90;;;;;;5071943;28;20025;-67
2022/04/27 04:00:50;;;;;;;6.28;2.83;;;7.60;99.90;;;;;;5072005;28;20053;-65
2022/04/27 04:03:15;;;;;;;5.28;3.22;;;7.60;99.90;;;;;;5071695;28;20033;-64
2022/04/27 04:05:42;;;;;;;5.90;3.25;;;7.60;99.90;;;;;;5071796;28;20126;-65
2022/04/27 04:08:07;;;;;;;6.85;2.70;;;7.60;99.90;;;;;;5071638;28;20050;-64
2022/04/27 04:10:34;;;;;;;6.32;3.03;;;7.60;99.90;;;;;;5071493;28;20161;-64
2022/04/27 04:12:59;;;;;;;6.32;3.40;;;7.60;99.90;;;;;;5071705;28;20461;-65
2022/04/27 04:15:25;;;;;;;4.30;2.67;;;7.60;99.90;;;;;;5071365;28;20036;-67
2022/04/27 04:17:51;;;;;;;8.00;3.00;;;7.60;99.90;;;;;;5068257;28;20032;-65
2022/04/27 04:20:17;;;;;;;5.25;2.58;;;7.60;99.90;;;;;;5068355;28;20036;-65
2022/04/27 04:22:44;;;;;;;5.18;2.88;;;7.60;99.90;;;;;;5071269;28;20036;-64
2022/04/27 04:30:41;;;;;;;4.80;2.85;;;7.60;99.90;;;;;;5070673;28;20035;-65
2022/04/27 04:33:06;;;;;;;4.85;2.78;;;7.70;99.90;;;;;;5068337;28;20032;-64
2022/04/27 04:35:33;;;;;;;7.57;2.78;;;7.70;99.90;;;;;;5068370;28;20036;-64
2022/04/27 04:37:58;;;;;;;5.28;3.10;;;7.70;99.90;;;;;;5070298;28;20099;-66
2022/04/27 04:40:24;;;;;;;8.65;3.63;;;7.70;99.90;;;;;;5071159;28;20111;-65
2022/04/27 04:42:49;;;;;;;6.30;3.60;;;7.70;99.90;;;;;;5070745;28;20032;-65
2022/04/27 04:45:15;;;;;;;6.85;3.55;;;7.70;99.90;;;;;;5071172;28;20032;-65
2022/04/27 04:47:44;;;;;;;5.45;2.88;;;7.70;99.90;;;;;;5071052;28;20024;-64
2022/04/27 04:50:11;;;;;;;5.85;3.45;;;7.70;99.90;;;;;;5070875;28;20045;-65
2022/04/27 04:52:37;;;;;;;4.20;3.00;;;7.80;99.90;;;;;;5070908;28;20019;-66
2022/04/27 04:55:03;;;;;;;6.13;3.30;;;7.90;99.90;;;;;;5070930;28;20036;-65
2022/04/27 04:57:29;;;;;;;6.05;2.63;;;7.90;99.90;;;;;;5070534;28;20512;-65
2022/04/27 04:59:54;;;;;;;5.28;3.58;;;8.00;99.90;;;;;;5070821;28;20024;-65
2022/04/27 05:02:20;;;;;;;4.00;2.78;;;8.00;99.90;;;;;;5067876;28;20032;-65
2022/04/27 05:04:46;;;;;;;5.78;2.72;;;8.00;99.90;;;;;;5067778;28;20052;-66
2022/04/27 05:07:11;;;;;;;6.75;3.13;;;8.10;99.90;;;;;;5067234;28;20498;-65
2022/04/27 05:09:37;;;;;;;4.93;2.85;;;8.10;99.90;;;;;;5067266;28;20068;-65
2022/04/27 05:12:04;;;;;;;4.70;2.92;;;8.10;99.90;;;;;;5068078;28;20421;-66
2022/04/27 05:14:30;;;;;;;6.40;3.08;;;8.10;99.90;;;;;;5070672;28;20112;-65
2022/04/27 05:16:56;;;;;;;4.47;2.20;;;8.10;99.90;;;;;;5068119;28;20051;-65
2022/04/27 05:19:22;;;;;;;5.90;3.03;;;8.20;99.90;;;;;;5067195;28;20143;-65
2022/04/27 05:21:49;;;;;;;5.18;2.42;;;8.20;99.90;;;;;;5068687;28;20021;-65
2022/04/27 05:24:15;;;;;;;6.05;2.78;;;8.20;99.90;;;;;;5070575;28;20027;-65
2022/04/27 05:26:40;;;;;;;5.65;2.25;;;8.20;99.90;;;;;;5070179;28;20024;-65
2022/04/27 05:32:00;;;;;;;5.18;2.22;;;8.30;99.90;;;;;;5050343;28;20025;-65
2022/04/27 05:34:29;;;;;;;4.35;2.47;;;8.30;99.90;;;;;;5050300;28;20029;-65
2022/04/27 05:37:05;;;;;;;3.00;2.08;;;8.40;99.90;;;;;;5050102;28;20048;-65
2022/04/27 05:39:31;;;;;;;3.88;1.95;;;8.40;99.90;;;;;;5050046;28;20524;-65
2022/04/27 05:41:56;;;;;;;4.43;2.20;;;8.50;99.90;;;;;;5049804;28;20029;-65
2022/04/27 05:44:23;;;;;;;5.00;2.42;;;8.50;99.90;;;;;;5049974;28;20055;-65
2022/04/27 05:46:53;;;;;;;8.40;3.30;;;8.60;99.90;;;;;;5050019;28;20034;-65
2022/04/27 05:49:20;;;;;;;6.95;2.70;;;8.60;99.90;;;;;;5049816;28;20037;-65
2022/04/27 05:51:46;;;;;;;9.70;2.80;;;8.70;99.90;;;;;;5050017;28;20104;-66
2022/04/27 05:54:16;;;;;;;5.50;2.78;;;8.80;99.90;;;;;;5049734;28;20032;-66
2022/04/27 05:56:43;;;;;;;4.55;2.30;;;8.80;99.90;;;;;;5066390;28;20044;-66
2022/04/27 05:59:09;;;;;;;3.22;2.03;;;8.80;99.90;;;;;;5066748;28;20029;-66
2022/04/27 06:01:34;;;;;;;5.72;2.58;;;8.80;99.90;;;;;;5066487;28;20033;-66
2022/04/27 06:04:00;;;;;;;7.40;2.70;;;8.80;99.90;;;;;;5066279;28;20029;-66
2022/04/27 06:06:26;;;;;;;5.00;2.63;;;8.80;99.90;;;;;;5066393;28;20024;-66
2022/04/27 06:08:52;;;;;;;7.72;2.83;;;8.90;99.90;;;;;;5066638;28;20058;-66
2022/04/27 06:11:19;;;;;;;4.50;2.08;;;8.90;99.90;;;;;;5068470;28;20104;-66
2022/04/27 06:13:46;;;;;;;4.63;2.45;;;8.90;99.90;;;;;;5069844;28;20047;-65
2022/04/27 06:16:13;;;;;;;7.18;2.80;;;8.90;99.90;;;;;;5068452;28;20028;-66
2022/04/27 06:18:40;;;;;;;4.35;2.22;;;9.00;99.90;;;;;;5066319;28;20074;-66
2022/04/27 06:21:09;;;;;;;3.67;2.45;;;9.00;99.90;;;;;;5069651;28;20021;-67
2022/04/27 06:23:37;;;;;;;6.63;3.08;;;9.10;99.90;;;;;;5070544;28;20028;-65
2022/04/27 06:26:05;;;;;;;5.43;2.42;;;9.10;99.90;;;;;;5070242;28;20108;-66
2022/04/27 06:28:32;;;;;;;5.40;2.22;;;9.20;99.90;;;;;;5070397;28;20044;-66
2022/04/27 06:30:58;;;;;;;3.05;1.90;;;9.20;99.90;;;;;;5070375;28;20025;-68
2022/04/27 06:33:24;;;;;;;3.92;2.08;;;9.20;99.90;;;;;;5073274;28;20021;-66
2022/04/27 06:35:50;;;;;;;4.53;1.88;;;9.30;99.90;;;;;;5073225;28;20068;-67
2022/04/27 06:38:16;;;;;;;4.60;2.20;;;9.30;99.90;;;;;;5073322;28;20116;-65
2022/04/27 06:40:41;;;;;;;3.80;2.13;;;9.50;99.90;;;;;;5073119;28;20503;-66
2022/04/27 06:43:07;;;;;;;5.40;2.25;;;9.60;99.90;;;;;;5073350;28;20024;-67
2022/04/27 06:45:36;;;;;;;2.78;1.67;;;9.60;99.90;;;;;;5073148;28;20043;-65
2022/04/27 06:48:04;;;;;;;3.35;2.20;;;9.70;99.90;;;;;;5071613;28;20477;-68
2022/04/27 06:50:30;;;;;;;4.90;2.20;;;9.70;99.90;;;;;;5068759;28;20067;-67
2022/04/27 06:52:59;;;;;;;2.38;1.38;;;9.80;99.90;;;;;;5070945;28;20108;-66
2022/04/27 06:55:26;;;;;;;3.63;1.83;;;9.90;99.90;;;;;;5070773;28;20084;-66
2022/04/27 06:57:52;;;;;;;5.07;2.03;;;10.10;99.90;;;;;;5069322;28;20021;-68
2022/04/27 07:00:18;;;;;;;4.07;2.17;;;10.10;99.90;;;;;;5071404;28;20464;-69
2022/04/27 07:02:44;;;;;;;4.13;1.92;;;10.20;99.90;;;;;;5069460;28;20036;-68
2022/04/27 07:05:16;;;;;;;2.40;1.50;;;10.30;99.90;;;;;;5069392;28;20028;-68
2022/04/27 07:07:42;;;;;;;3.22;1.42;;;10.30;99.90;;;;;;5069581;28;20384;-68
2022/04/27 07:10:08;;;;;;;3.33;1.75;;;10.40;99.90;;;;;;5069621;28;20499;-67
2022/04/27 07:12:33;;;;;;;3.00;1.50;;;10.50;99.90;;;;;;5067885;28;20666;-67
2022/04/27 07:14:59;;;;;;;2.08;1.58;;;10.60;99.90;;;;;;5069863;28;20473;-68
2022/04/27 07:17:25;;;;;;;2.38;1.38;;;10.70;99.90;;;;;;5071924;28;20028;-68
2022/04/27 07:19:51;;;;;;;2.38;1.52;;;10.80;99.90;;;;;;5072505;28;20020;-67
2022/04/27 07:22:16;;;;;;;2.63;1.38;;;10.90;99.90;;;;;;5068607;28;20024;-67
2022/04/27 07:24:44;;;;;;;4.50;1.67;;;11.00;99.90;;;;;;5054825;28;20025;-67
2022/04/27 07:27:10;;;;;;;4.60;2.13;;;11.20;99.90;;;;;;5072268;28;20082;-67
2022/04/27 07:29:36;;;;;;;3.10;1.35;;;11.50;99.70;;;;;;5070988;28;20098;-67
2022/04/27 07:32:02;;;;;;;2.85;1.27;;;11.60;97.30;;;;;;5068873;28;20046;-67
2022/04/27 07:34:28;;;;;;;3.05;1.40;;;11.70;98.30;;;;;;5070128;28;20028;-67
2022/04/27 07:36:57;;;;;;;2.03;1.17;;;11.80;98.00;;;;;;5071271;28;20135;-67
2022/04/27 07:39:27;;;;;;;2.13;1.63;;;11.80;96.90;;;;;;5069157;28;20028;-68
2022/04/27 07:41:52;;;;;;;3.00;1.73;;;11.90;95.90;;;;;;5068960;28;20795;-68
2022/04/27 07:44:18;;;;;;;3.63;0.90;;;11.90;96.60;;;;;;5069224;28;20542;-66
2022/04/27 07:46:47;;;;;;;0.90;0.70;;;12.00;96.10;;;;;;5072017;28;20059;-66
2022/04/27 07:49:19;;;;;;;0.95;0.73;;;12.10;93.60;;;;;;5072036;28;20040;-65
2022/04/27 07:51:45;;;;;;;4.28;1.02;;;12.10;93.10;;;;;;5072101;28;20384;-67
2022/04/27 07:54:11;;;;;;;1.85;1.65;;;12.20;93.50;;;;;;5071949;28;20030;-66
2022/04/27 07:56:37;;;;;;;0.98;0.93;;;12.20;93.10;;;;;;5071651;28;20021;-68
2022/04/27 07:59:02;;;;;;;3.25;1.15;;;12.50;94.10;;;;;;5071749;28;20507;-65
2022/04/27 08:01:28;;;;;;;2.08;1.02;;;12.70;91.80;;;;;;5071791;28;20462;-67
2022/04/27 08:03:54;;;;;;;1.52;0.88;;;12.80;91.90;;;;;;5071654;28;20160;-66
2022/04/27 08:06:19;;;;;;;1.25;0.60;;;13.00;90.80;;;;;;5071532;28;20056;-66
2022/04/27 08:08:45;;;;;;;1.45;0.90;;;13.10;89.30;;;;;;5068742;28;20529;-67
2022/04/27 08:11:13;;;;;;;3.53;1.20;;;13.20;88.30;;;;;;5067850;28;20025;-67
2022/04/27 08:13:39;;;;;;;1.88;0.90;;;13.40;87.90;;;;;;5071180;28;20481;-67
2022/04/27 08:16:07;;;;;;;1.42;0.80;;;13.50;86.90;;;;;;5071700;28;20032;-67
2022/04/27 08:18:35;;;;;;;2.00;0.98;;;13.50;86.10;;;;;;5071572;28;20074;-67
2022/04/27 08:21:16;;;;;;;0.82;0.55;;;13.40;83.90;;;;;;5071920;28;20028;-65
2022/04/27 08:23:47;;;;;;;1.77;1.10;;;13.40;85.20;;;;;;5069748;28;20074;-66
2022/04/27 08:26:13;;;;;;;1.08;0.60;;;13.30;85.20;;;;;;5068056;28;20016;-66
2022/04/27 08:28:41;;;;;;;1.17;0.80;;;13.40;86.00;;;;;;5068040;28;20047;-67
2022/04/27 08:31:08;;;;;;;3.40;1.10;;;13.40;86.60;;;;;;5070913;28;20470;-67
2022/04/27 08:33:34;;;;;;;1.30;0.82;;;13.40;86.10;;;;;;5071164;28;20111;-67
2022/04/27 08:36:00;;;;;;;1.25;0.88;;;13.40;85.30;;;;;;5071095;28;20115;-66
2022/04/27 08:38:27;;;;;;;1.40;0.80;;;13.50;85.60;;;;;;5071048;28;20028;-66
2022/04/27 08:40:53;;;;;;;1.23;0.70;;;13.50;82.20;;;;;;5071144;28;20036;-66
2022/04/27 08:43:21;;;;;;;2.72;1.15;;;13.50;83.80;;;;;;5070102;28;20028;-64
2022/04/27 08:45:47;;;;;;;3.80;1.10;;;13.60;83.80;;;;;;5066311;28;20040;-69
2022/04/27 08:48:14;;;;;;;1.13;0.85;;;13.70;83.80;;;;;;5053926;28;20044;-69
2022/04/27 08:50:40;;;;;;;2.58;0.98;;;13.70;81.90;;;;;;5064918;28;20028;-69
2022/04/27 08:53:06;;;;;;;1.50;0.60;;;13.80;84.40;;;;;;5071298;28;20025;-66
2022/04/27 08:55:34;;;;;;;0.98;0.65;;;13.80;83.20;;;;;;5063978;28;20086;-66
2022/04/27 08:58:09;;;;;;;0.93;0.57;;;13.90;81.20;;;;;;5070489;28;20456;-66
2022/04/27 09:00:35;;;;;;;0.95;0.88;;;14.00;82.30;;;;;;5070769;28;20446;-66
2022/04/27 09:03:21;;;;;;;0.65;0.65;;;14.30;79.30;;;;;;5070114;28;20095;-68
2022/04/27 09:05:51;;;;;;;1.23;0.70;;;14.40;79.60;;;;;;5066183;28;20032;-67
2022/04/27 09:08:17;;;;;;;4.05;1.02;;;14.50;76.80;;;;;;5066472;28;20035;-66
2022/04/27 09:10:43;;;;;;;0.80;0.52;;;14.60;77.40;;;;;;5070490;28;20028;-66
2022/04/27 09:13:08;;;;;;;1.02;0.65;;;14.30;77.00;;;;;;5070766;28;20111;-67
2022/04/27 09:15:34;;;;;;;0.95;0.68;;;14.50;75.90;;;;;;5070705;28;20095;-67
2022/04/27 09:20:47;;;;;;;1.30;0.60;;;14.20;73.70;;;;;;5049290;28;20032;-67
2022/04/27 09:23:24;;;;;;;1.67;0.57;;;14.30;75.10;;;;;;5047428;28;20051;-67
2022/04/27 09:25:52;;;;;;;1.30;0.75;;;14.40;72.80;;;;;;5058563;28;20032;-66
2022/04/27 09:28:21;;;;;;;0.95;0.60;;;14.50;71.80;;;;;;5068427;28;20029;-66
2022/04/27 09:30:48;;;;;;;2.75;0.80;;;14.50;74.20;;;;;;5070231;28;20044;-66
2022/04/27 09:33:32;;;;;;;1.95;0.50;;;14.80;75.70;;;;;;5070195;28;20033;-66
2022/04/27 09:35:58;;;;;;;1.08;0.80;;;15.00;73.10;;;;;;5070096;28;20076;-66
2022/04/27 09:38:24;;;;;;;1.95;0.70;;;14.80;71.70;;;;;;5070432;28;20070;-67
2022/04/27 09:40:55;;;;;;;2.60;0.70;;;14.70;70.70;;;;;;5069958;28;20024;-66
2022/04/27 09:44:00;;;;;;;1.45;1.35;;;14.80;71.00;;;;;;5068804;28;20036;-66
2022/04/27 09:46:25;;;;;;;1.40;0.60;;;14.90;69.40;;;;;;5024674;28;20045;-67
2022/04/27 09:49:09;;;;;;;2.45;0.98;;;15.00;69.00;;;;;;5021124;28;20391;-65
2022/04/27 09:51:47;;;;;;;1.40;0.90;;;15.10;68.80;;;;;;5048517;28;20039;-67
2022/04/27 09:54:19;;;;;;;1.65;0.82;;;15.20;66.40;;;;;;5066379;28;20115;-66
2022/04/27 09:56:50;;;;;;;0.80;0.80;;;15.30;64.20;;;;;;5069232;28;20031;-67
2022/04/27 09:59:18;;;;;;;3.08;0.80;;;15.30;65.80;;;;;;5069791;28;20145;-65
2022/04/27 10:01:46;;;;;;;1.20;1.10;;;15.30;65.20;;;;;;5048909;28;20468;-64
2022/04/27 10:04:13;;;;;;;0.70;0.70;;;15.40;68.60;;;;;;5049505;28;20024;-64
2022/04/27 10:06:39;;;;;;;1.27;0.85;;;15.50;65.70;;;;;;5049383;28;20116;-65
2022/04/27 10:09:05;;;;;;;1.10;0.93;;;15.80;66.60;;;;;;5045444;28;20120;-66
2022/04/27 10:11:32;;;;;;;1.38;0.70;;;15.90;62.50;;;;;;5046854;28;20450;-67
2022/04/27 10:13:58;;;;;;;1.15;0.80;;;15.80;63.70;;;;;;5046569;28;20434;-68
2022/04/27 10:16:25;;;;;;;1.63;0.80;;;15.80;64.10;;;;;;5046725;28;20044;-68
2022/04/27 10:18:51;;;;;;;0.98;0.75;;;15.40;65.40;;;;;;5046342;28;20036;-67
2022/04/27 10:21:43;;;;;;;1.75;0.93;;;14.80;66.00;;;;;;5046804;28;20035;-68
2022/04/27 10:24:12;;;;;;;1.17;0.65;;;14.40;69.70;;;;;;5047418;28;20111;-67
2022/04/27 10:26:40;;;;;;;1.35;1.17;;;14.00;72.00;;;;;;5064312;28;20393;-67
2022/04/27 10:29:06;;;;;;;0.80;0.68;;;13.70;70.80;;;;;;5067508;28;20032;-65
2022/04/27 10:31:44;;;;;;;0.90;0.65;;;13.50;71.40;;;;;;5069349;28;20032;-66
2022/04/27 10:34:20;;;;;;;1.35;0.73;;;13.60;71.60;;;;;;5069152;28;20045;-69
2022/04/27 10:36:48;;;;;;;2.35;0.85;;;14.00;70.80;;;;;;5069486;28;20048;-66
2022/04/27 10:39:14;;;;;;;2.33;0.75;;;14.60;69.90;;;;;;5069437;28;20036;-68
2022/04/27 10:41:52;;;;;;;1.58;0.65;;;15.20;68.90;;;;;;5067932;28;20056;-68
2022/04/27 10:44:18;;;;;;;1.77;1.13;;;15.60;63.40;;;;;;5066475;28;20032;-66
2022/04/27 10:46:44;;;;;;;0.98;0.68;;;16.20;60.50;;;;;;5067305;28;20028;-66
2022/04/27 10:49:28;;;;;;;0.77;0.57;;;16.70;58.60;;;;;;5069027;28;20090;-65
2022/04/27 10:52:08;;;;;;;1.65;0.70;;;16.60;57.20;;;;;;5069303;28;20025;-66
2022/04/27 10:54:39;;;;;;;2.10;0.80;;;16.30;57.00;;;;;;5069117;28;20110;-64
2022/04/27 10:57:16;;;;;;;1.48;1.10;;;16.10;56.00;;;;;;5069010;28;20025;-67
2022/04/27 10:59:42;;;;;;;0.60;0.60;;;15.90;56.20;;;;;;5069281;28;20021;-66
2022/04/27 11:02:30;;;;;;;0.82;0.70;;;15.90;54.60;;;;;;5069279;28;20017;-65
2022/04/27 11:04:57;;;;;;;0.93;0.80;;;16.20;53.80;;;;;;5069169;28;20064;-65
2022/04/27 11:07:39;;;;;;;2.25;0.85;;;16.20;53.80;;;;;;5072379;28;20171;-66
2022/04/27 11:10:10;;;;;;;2.28;0.90;;;16.20;58.10;;;;;;5072452;28;20131;-69
2022/04/27 11:12:36;;;;;;;;;;;15.90;59.50;;;;;;5069275;28;20024;-68
2022/04/27 11:15:04;;;;;;;1.48;1.17;;;15.50;61.10;;;;;;5069772;28;19904;-69
2022/04/27 11:17:30;;;;;;;4.03;1.25;;;15.50;64.60;;;;;;5068151;28;20029;-67
2022/04/27 11:19:56;;;;;;;1.45;0.82;;;15.30;66.90;;;;;;5069397;28;20051;-68
2022/04/27 11:22:22;;;;;;;3.55;1.10;;;15.30;66.30;;;;;;5069959;28;20481;-69
2022/04/27 11:24:50;;;;;;;2.42;1.00;;;15.40;65.90;;;;;;5069381;28;20029;-69
2022/04/27 11:27:23;;;;;;;1.88;0.82;;;15.60;65.40;;;;;;5069235;28;20500;-67
2022/04/27 11:29:51;;;;;;;1.27;0.90;;;15.80;64.80;;;;;;5069061;28;20102;-67
2022/04/27 11:32:17;;;;;;;1.15;0.93;;;16.00;63.70;;;;;;5069282;28;20420;-69
2022/04/27 11:34:48;;;;;;;1.30;0.68;;;15.80;63.50;;;;;;5069305;28;20578;-66
2022/04/27 11:37:19;;;;;;;2.72;0.95;;;15.90;65.20;;;;;;5069319;28;20075;-65
2022/04/27 11:39:46;;;;;;;0.77;0.60;;;16.00;62.00;;;;;;5069263;28;20388;-66
2022/04/27 11:42:13;;;;;;;2.13;1.10;;;15.80;62.60;;;;;;5068957;28;20481;-66
2022/04/27 11:44:40;;;;;;;2.13;1.13;;;15.60;62.60;;;;;;5069389;28;20024;-65
2022/04/27 11:47:25;;;;;;;1.98;0.88;;;15.30;64.10;;;;;;5069126;28;20024;-64
2022/04/27 11:49:59;;;;;;;2.55;0.90;;;15.10;61.90;;;;;;5069011;28;20028;-65
2022/04/27 11:52:25;;;;;;;1.25;0.80;;;15.00;63.90;;;;;;5068962;28;20016;-65
2022/04/27 11:54:51;;;;;;;1.42;0.90;;;15.00;63.70;;;;;;5068977;28;20038;-67
2022/04/27 11:57:22;;;;;;;1.77;1.38;;;14.90;62.40;;;;;;5067218;28;20026;-65
2022/04/27 11:59:49;;;;;;;2.00;1.00;;;14.70;61.00;;;;;;5069282;28;20028;-67
2022/04/27 12:02:23;;;;;;;2.00;0.73;;;14.50;65.50;;;;;;5068838;28;20099;-66
2022/04/27 12:04:53;;;;;;;1.38;1.27;;;14.20;67.10;;;;;;5068594;28;20052;-64
2022/04/27 12:07:21;;;;;;;1.17;0.82;;;14.00;68.20;;;;;;5068577;28;20028;-63
2022/04/27 12:10:01;;;;;;;1.65;1.00;;;13.70;69.40;;;;;;5068462;28;20374;-64
2022/04/27 12:12:28;;;;;;;2.57;1.03;;;13.60;70.70;;;;;;5067408;28;20020;-66
2022/04/27 12:14:55;;;;;;;1.38;0.77;;;13.70;68.60;;;;;;5068383;28;20880;-66
2022/04/27 12:17:50;;;;;;;1.58;0.85;;;13.80;68.20;;;;;;5067374;28;20166;-66
2022/04/27 12:20:39;;;;;;;2.00;0.75;;;14.20;65.90;;;;;;5068429;28;20031;-66
2022/04/27 12:23:12;;;;;;;1.73;0.85;;;14.40;63.90;;;;;;5068598;28;20033;-67
2022/04/27 12:26:01;;;;;;;0.82;0.60;;;14.70;62.00;;;;;;5068448;28;20024;-66
2022/04/27 12:28:29;;;;;;;0.80;0.80;;;15.00;61.60;;;;;;5068786;28;20028;-67
2022/04/27 12:31:06;;;;;;;2.67;0.75;;;15.30;58.10;;;;;;5068315;28;20459;-66
2022/04/27 12:33:46;;;;;;;0.93;0.70;;;15.40;58.60;;;;;;5068257;28;20103;-66
2022/04/27 12:39:11;;;;;;;1.20;0.88;;;15.50;63.70;;;;;;5067923;28;20035;-66
2022/04/27 12:41:43;;;;;;;1.77;0.93;;;15.40;64.60;;;;;;5067940;28;20081;-65
2022/04/27 12:44:09;;;;;;;1.67;0.90;;;15.20;63.00;;;;;;5068140;28;20044;-65
2022/04/27 12:46:37;;;;;;;0.93;0.80;;;15.00;63.50;;;;;;5066744;28;20024;-66
2022/04/27 12:49:06;;;;;;;1.98;0.90;;;15.00;64.70;;;;;;5067821;28;20032;-65
2022/04/27 12:51:35;;;;;;;1.63;1.15;;;15.00;65.90;;;;;;5068314;28;20040;-67
2022/04/27 12:54:04;;;;;;;1.43;1.07;;;15.20;61.80;;;;;;5068282;28;20102;-66
2022/04/27 12:56:36;;;;;;;1.58;1.17;;;15.20;60.10;;;;;;5067654;28;20028;-66
2022/04/27 12:59:07;;;;;;;1.60;0.80;;;15.30;61.00;;;;;;5067861;28;20496;-66
2022/04/27 13:01:33;;;;;;;;;;;15.40;62.70;;;;;;5068255;28;20039;-66
2022/04/27 13:03:59;;;;;;;0.73;0.65;;;15.60;61.20;;;;;;5067595;28;19912;-65
2022/04/27 13:06:26;;;;;;;1.83;1.02;;;15.50;60.00;;;;;;5067589;28;20429;-66
2022/04/27 13:08:52;;;;;;;1.63;1.05;;;15.60;60.70;;;;;;5067331;28;20498;-64
2022/04/27 13:14:04;;;;;;;0.95;0.88;;;15.50;59.60;;;;;;5067486;28;20043;-67
2022/04/27 13:16:30;;;;;;;0.70;0.63;;;15.50;60.00;;;;;;5067157;28;20500;-63
2022/04/27 13:18:56;;;;;;;3.55;0.90;;;15.30;60.20;;;;;;5060220;28;20025;-66